sensor_id;sensor_type;location;lat;lon;timestamp;pressure;altitude;pressure_sealevel;temperature;humidity
68793;BME280;55778;54.346;10.210;2023-04-28T00:00:44;101518.44;;;0.57;100.00
68793;BME280;55778;54.346;10.210;2023-04-28T00:03:11;101523.88;;;0.55;100.00
68793;BME280;55778;54.346;10.210;2023-04-28T00:05:36;101522.44;;;0.47;100.00
68793;BME280;55778;54.346;10.210;2023-04-28T00:08:02;101508.09;;;0.48;100.00
68793;BME280;55778;54.346;10.210;2023-04-28T00:10:28;101511.78;;;0.45;100.00
68793;BME280;55778;54.346;10.210;2023-04-28T00:12:53;101511.72;;;0.47;100.00
68793;BME280;55778;54.346;10.210;2023-04-28T00:15:19;101512.59;;;0.47;100.00
68793;BME280;55778;54.346;10.210;2023-04-28T00:17:45;101504.81;;;0.41;100.00
68793;BME280;55778;54.346;10.210;2023-04-28T00:20:10;101508.34;;;0.42;100.00
68793;BME280;55778;54.346;10.210;2023-04-28T00:22:36;101504.94;;;0.38;100.00
68793;BME280;55778;54.346;10.210;2023-04-28T00:25:01;101500.50;;;0.37;100.00
68793;BME280;55778;54.346;10.210;2023-04-28T00:27:27;101496.03;;;0.38;100.00
68793;BME280;55778;54.346;10.210;2023-04-28T00:29:52;101503.19;;;0.37;100.00
68793;BME280;55778;54.346;10.210;2023-04-28T00:32:18;101505.97;;;0.36;100.00
68793;BME280;55778;54.346;10.210;2023-04-28T00:34:43;101501.38;;;0.38;100.00
68793;BME280;55778;54.346;10.210;2023-04-28T00:37:09;101503.19;;;0.37;100.00
68793;BME280;55778;54.346;10.210;2023-04-28T00:39:34;101503.28;;;0.36;100.00
68793;BME280;55778;54.346;10.210;2023-04-28T00:42:00;101496.22;;;0.33;100.00
68793;BME280;55778;54.346;10.210;2023-04-28T00:44:26;101495.38;;;0.33;100.00
68793;BME280;55778;54.346;10.210;2023-04-28T00:46:52;101494.53;;;0.31;100.00
68793;BME280;55778;54.346;10.210;2023-04-28T00:49:17;101493.72;;;0.29;100.00
68793;BME280;55778;54.346;10.210;2023-04-28T00:51:43;101498.09;;;0.31;100.00
68793;BME280;55778;54.346;10.210;2023-04-28T00:54:12;101495.81;;;0.22;100.00
68793;BME280;55778;54.346;10.210;2023-04-28T00:56:37;101489.00;;;0.14;100.00
68793;BME280;55778;54.346;10.210;2023-04-28T00:59:05;101492.09;;;0.03;100.00
68793;BME280;55778;54.346;10.210;2023-04-28T01:01:31;101487.81;;;-0.01;100.00
68793;BME280;55778;54.346;10.210;2023-04-28T01:03:56;101489.75;;;-0.05;100.00
68793;BME280;55778;54.346;10.210;2023-04-28T01:06:22;101487.19;;;-0.08;100.00
68793;BME280;55778;54.346;10.210;2023-04-28T01:08:48;101489.69;;;-0.03;100.00
68793;BME280;55778;54.346;10.210;2023-04-28T01:11:15;101491.56;;;-0.05;100.00
68793;BME280;55778;54.346;10.210;2023-04-28T01:13:40;101493.28;;;-0.04;100.00
68793;BME280;55778;54.346;10.210;2023-04-28T01:16:06;101496.78;;;-0.02;100.00
68793;BME280;55778;54.346;10.210;2023-04-28T01:18:32;101492.91;;;0.05;100.00
68793;BME280;55778;54.346;10.210;2023-04-28T01:20:57;101501.03;;;0.03;100.00
68793;BME280;55778;54.346;10.210;2023-04-28T01:23:23;101503.69;;;0.03;100.00
68793;BME280;55778;54.346;10.210;2023-04-28T01:25:48;101494.13;;;-0.02;100.00
68793;BME280;55778;54.346;10.210;2023-04-28T01:28:14;101492.97;;;0.03;100.00
68793;BME280;55778;54.346;10.210;2023-04-28T01:30:39;101503.41;;;0.11;100.00
68793;BME280;55778;54.346;10.210;2023-04-28T01:33:05;101501.59;;;0.12;100.00
68793;BME280;55778;54.346;10.210;2023-04-28T01:35:30;101501.66;;;0.10;100.00
68793;BME280;55778;54.346;10.210;2023-04-28T01:37:56;101501.72;;;0.09;100.00
68793;BME280;55778;54.346;10.210;2023-04-28T01:40:21;101501.84;;;0.06;100.00
68793;BME280;55778;54.346;10.210;2023-04-28T01:42:46;101492.75;;;0.10;100.00
68793;BME280;55778;54.346;10.210;2023-04-28T01:45:12;101497.28;;;0.08;100.00
68793;BME280;55778;54.346;10.210;2023-04-28T01:47:37;101489.47;;;0.01;100.00
68793;BME280;55778;54.346;10.210;2023-04-28T01:50:03;101485.00;;;0.02;100.00
68793;BME280;55778;54.346;10.210;2023-04-28T01:52:29;101491.13;;;0.06;100.00
68793;BME280;55778;54.346;10.210;2023-04-28T01:54:54;101485.75;;;0.06;100.00
68793;BME280;55778;54.346;10.210;2023-04-28T01:57:20;101485.94;;;0.01;100.00
68793;BME280;55778;54.346;10.210;2023-04-28T01:59:45;101492.84;;;0.07;100.00
68793;BME280;55778;54.346;10.210;2023-04-28T02:02:10;101491.13;;;0.06;100.00
68793;BME280;55778;54.346;10.210;2023-04-28T02:04:39;101496.13;;;0.15;100.00
68793;BME280;55778;54.346;10.210;2023-04-28T02:07:05;101489.56;;;0.22;100.00
68793;BME280;55778;54.346;10.210;2023-04-28T02:09:31;101479.84;;;0.19;100.00
68793;BME280;55778;54.346;10.210;2023-04-28T02:11:56;101474.38;;;0.22;100.00
68793;BME280;55778;54.346;10.210;2023-04-28T02:14:23;101475.28;;;0.21;100.00
68793;BME280;55778;54.346;10.210;2023-04-28T02:16:49;101468.31;;;0.17;100.00
68793;BME280;55778;54.346;10.210;2023-04-28T02:19:14;101471.94;;;0.16;100.00
68793;BME280;55778;54.346;10.210;2023-04-28T02:21:41;101472.00;;;0.15;100.00
68793;BME280;55778;54.346;10.210;2023-04-28T02:24:07;101475.13;;;0.04;100.00
68793;BME280;55778;54.346;10.210;2023-04-28T02:26:33;101473.50;;;0.00;100.00
68793;BME280;55778;54.346;10.210;2023-04-28T02:28:59;101476.19;;;0.00;100.00
68793;BME280;55778;54.346;10.210;2023-04-28T02:31:28;101469.88;;;0.01;100.00
68793;BME280;55778;54.346;10.210;2023-04-28T02:33:53;101470.81;;;0.00;100.00
68793;BME280;55778;54.346;10.210;2023-04-28T02:36:18;101460.09;;;0.00;100.00
68793;BME280;55778;54.346;10.210;2023-04-28T02:38:44;101461.16;;;-0.04;100.00
68793;BME280;55778;54.346;10.210;2023-04-28T02:41:09;101456.72;;;-0.05;100.00
68793;BME280;55778;54.346;10.210;2023-04-28T02:43:35;101454.19;;;-0.08;100.00
68793;BME280;55778;54.346;10.210;2023-04-28T02:46:02;101453.03;;;-0.03;100.00
68793;BME280;55778;54.346;10.210;2023-04-28T02:48:27;101462.63;;;0.03;100.00
68793;BME280;55778;54.346;10.210;2023-04-28T02:50:53;101453.31;;;0.13;100.00
68793;BME280;55778;54.346;10.210;2023-04-28T02:53:19;101452.16;;;0.19;100.00
68793;BME280;55778;54.346;10.210;2023-04-28T02:55:45;101451.16;;;0.21;100.00
68793;BME280;55778;54.346;10.210;2023-04-28T02:58:10;101452.59;;;0.30;100.00
68793;BME280;55778;54.346;10.210;2023-04-28T03:00:36;101442.81;;;0.29;100.00
68793;BME280;55778;54.346;10.210;2023-04-28T03:03:01;101439.19;;;0.30;100.00
68793;BME280;55778;54.346;10.210;2023-04-28T03:05:27;101433.03;;;0.28;100.00
68793;BME280;55778;54.346;10.210;2023-04-28T03:07:52;101440.00;;;0.32;100.00
68793;BME280;55778;54.346;10.210;2023-04-28T03:10:18;101436.41;;;0.33;100.00
68793;BME280;55778;54.346;10.210;2023-04-28T03:12:43;101436.34;;;0.34;100.00
68793;BME280;55778;54.346;10.210;2023-04-28T03:15:09;101437.38;;;0.30;100.00
68793;BME280;55778;54.346;10.210;2023-04-28T03:17:35;101429.34;;;0.30;100.00
68793;BME280;55778;54.346;10.210;2023-04-28T03:20:03;101430.34;;;0.28;100.00
68793;BME280;55778;54.346;10.210;2023-04-28T03:22:29;101422.38;;;0.26;100.00
68793;BME280;55778;54.346;10.210;2023-04-28T03:24:55;101426.47;;;0.35;100.00
68793;BME280;55778;54.346;10.210;2023-04-28T03:27:20;101419.81;;;0.23;100.00
68793;BME280;55778;54.346;10.210;2023-04-28T03:29:46;101421.63;;;0.23;100.00
68793;BME280;55778;54.346;10.210;2023-04-28T03:32:11;101414.34;;;0.26;100.00
68793;BME280;55778;54.346;10.210;2023-04-28T03:34:37;101415.16;;;0.28;100.00
68793;BME280;55778;54.346;10.210;2023-04-28T03:37:02;101414.06;;;0.32;100.00
68793;BME280;55778;54.346;10.210;2023-04-28T03:39:27;101408.50;;;0.37;100.00
68793;BME280;55778;54.346;10.210;2023-04-28T03:41:55;101410.88;;;0.44;100.00
68793;BME280;55778;54.346;10.210;2023-04-28T03:44:21;101408.78;;;0.51;100.00
68793;BME280;55778;54.346;10.210;2023-04-28T03:46:47;101406.34;;;0.45;100.00
68793;BME280;55778;54.346;10.210;2023-04-28T03:49:13;101396.72;;;0.41;100.00
68793;BME280;55778;54.346;10.210;2023-04-28T03:51:38;101399.31;;;0.42;100.00
68793;BME280;55778;54.346;10.210;2023-04-28T03:54:04;101397.78;;;0.37;100.00
68793;BME280;55778;54.346;10.210;2023-04-28T03:56:29;101388.16;;;0.33;100.00
68793;BME280;55778;54.346;10.210;2023-04-28T03:58:55;101386.38;;;0.32;100.00
68793;BME280;55778;54.346;10.210;2023-04-28T04:01:20;101379.34;;;0.29;100.00
68793;BME280;55778;54.346;10.210;2023-04-28T04:03:46;101374.25;;;0.23;100.00
68793;BME280;55778;54.346;10.210;2023-04-28T04:06:12;101383.97;;;0.26;100.00
68793;BME280;55778;54.346;10.210;2023-04-28T04:08:37;101381.91;;;0.32;100.00
68793;BME280;55778;54.346;10.210;2023-04-28T04:11:03;101381.91;;;0.32;100.00
68793;BME280;55778;54.346;10.210;2023-04-28T04:13:28;101373.94;;;0.31;100.00
68793;BME280;55778;54.346;10.210;2023-04-28T04:15:54;101380.03;;;0.34;100.00
68793;BME280;55778;54.346;10.210;2023-04-28T04:18:19;101380.03;;;0.34;100.00
68793;BME280;55778;54.346;10.210;2023-04-28T04:20:45;101381.84;;;0.34;100.00
68793;BME280;55778;54.346;10.210;2023-04-28T04:23:10;101376.22;;;0.40;100.00
68793;BME280;55778;54.346;10.210;2023-04-28T04:25:36;101379.16;;;0.34;100.00
68793;BME280;55778;54.346;10.210;2023-04-28T04:28:01;101370.16;;;0.35;100.00
68793;BME280;55778;54.346;10.210;2023-04-28T04:30:26;101380.97;;;0.33;100.00
68793;BME280;55778;54.346;10.210;2023-04-28T04:32:52;101370.91;;;0.38;100.00
68793;BME280;55778;54.346;10.210;2023-04-28T04:35:17;101364.53;;;0.41;100.00
68793;BME280;55778;54.346;10.210;2023-04-28T04:37:43;101367.84;;;0.47;100.00
68793;BME280;55778;54.346;10.210;2023-04-28T04:40:09;101372.97;;;0.72;100.00
68793;BME280;55778;54.346;10.210;2023-04-28T04:42:34;101368.19;;;0.78;100.00
68793;BME280;55778;54.346;10.210;2023-04-28T04:45:00;101366.31;;;0.80;100.00
68793;BME280;55778;54.346;10.210;2023-04-28T04:47:25;101361.53;;;0.87;100.00
68793;BME280;55778;54.346;10.210;2023-04-28T04:49:51;101359.38;;;1.13;100.00
68793;BME280;55778;54.346;10.210;2023-04-28T04:52:17;101359.41;;;1.32;100.00
68793;BME280;55778;54.346;10.210;2023-04-28T04:54:43;101362.66;;;1.38;100.00
68793;BME280;55778;54.346;10.210;2023-04-28T04:57:08;101354.88;;;1.51;100.00
68793;BME280;55778;54.346;10.210;2023-04-28T04:59:33;101349.47;;;1.69;100.00
68793;BME280;55778;54.346;10.210;2023-04-28T05:01:59;101348.75;;;1.66;100.00
68793;BME280;55778;54.346;10.210;2023-04-28T05:04:24;101349.38;;;1.71;100.00
68793;BME280;55778;54.346;10.210;2023-04-28T05:06:49;101347.66;;;1.87;100.00
68793;BME280;55778;54.346;10.210;2023-04-28T05:09:15;101340.84;;;1.98;100.00
68793;BME280;55778;54.346;10.210;2023-04-28T05:11:41;101349.69;;;2.18;100.00
68793;BME280;55778;54.346;10.210;2023-04-28T05:14:06;101338.91;;;2.35;100.00
68793;BME280;55778;54.346;10.210;2023-04-28T05:16:32;101348.19;;;2.46;100.00
68793;BME280;55778;54.346;10.210;2023-04-28T05:18:57;101347.06;;;2.50;100.00
68793;BME280;55778;54.346;10.210;2023-04-28T05:21:23;101345.78;;;2.57;100.00
68793;BME280;55778;54.346;10.210;2023-04-28T05:23:48;101335.84;;;2.75;100.00
68793;BME280;55778;54.346;10.210;2023-04-28T05:26:14;101337.38;;;2.80;100.00
68793;BME280;55778;54.346;10.210;2023-04-28T05:28:40;101338.94;;;3.00;100.00
68793;BME280;55778;54.346;10.210;2023-04-28T05:31:05;101333.34;;;3.20;100.00
68793;BME280;55778;54.346;10.210;2023-04-28T05:33:31;101325.09;;;3.38;100.00
68793;BME280;55778;54.346;10.210;2023-04-28T05:35:56;101323.09;;;3.42;100.00
68793;BME280;55778;54.346;10.210;2023-04-28T05:38:22;101316.50;;;3.63;100.00
68793;BME280;55778;54.346;10.210;2023-04-28T05:40:47;101316.78;;;3.88;100.00
68793;BME280;55778;54.346;10.210;2023-04-28T05:43:13;101321.75;;;3.95;100.00
68793;BME280;55778;54.346;10.210;2023-04-28T05:45:39;101311.50;;;4.16;100.00
68793;BME280;55778;54.346;10.210;2023-04-28T05:48:04;101313.03;;;4.20;100.00
68793;BME280;55778;54.346;10.210;2023-04-28T05:50:30;101312.38;;;4.31;100.00
68793;BME280;55778;54.346;10.210;2023-04-28T05:52:55;101310.41;;;4.48;100.00
68793;BME280;55778;54.346;10.210;2023-04-28T05:55:21;101305.34;;;4.72;100.00
68793;BME280;55778;54.346;10.210;2023-04-28T05:57:46;101309.06;;;4.97;100.00
68793;BME280;55778;54.346;10.210;2023-04-28T06:00:13;101306.09;;;5.16;100.00
68793;BME280;55778;54.346;10.210;2023-04-28T06:02:38;101300.44;;;5.47;100.00
68793;BME280;55778;54.346;10.210;2023-04-28T06:05:04;101302.56;;;5.68;100.00
68793;BME280;55778;54.346;10.210;2023-04-28T06:07:29;101295.34;;;5.95;100.00
68793;BME280;55778;54.346;10.210;2023-04-28T06:09:55;101292.50;;;6.11;100.00
68793;BME280;55778;54.346;10.210;2023-04-28T06:12:20;101289.78;;;6.24;100.00
68793;BME280;55778;54.346;10.210;2023-04-28T06:14:46;101291.19;;;6.29;99.41
68793;BME280;55778;54.346;10.210;2023-04-28T06:17:11;101296.63;;;6.29;98.36
68793;BME280;55778;54.346;10.210;2023-04-28T06:19:36;101284.53;;;6.35;98.53
68793;BME280;55778;54.346;10.210;2023-04-28T06:22:02;101291.69;;;6.48;98.72
68793;BME280;55778;54.346;10.210;2023-04-28T06:24:27;101283.34;;;6.51;97.71
68793;BME280;55778;54.346;10.210;2023-04-28T06:26:53;101283.97;;;6.55;98.00
68793;BME280;55778;54.346;10.210;2023-04-28T06:29:18;101288.66;;;6.65;98.24
68793;BME280;55778;54.346;10.210;2023-04-28T06:31:45;101285.81;;;6.67;98.16
68793;BME280;55778;54.346;10.210;2023-04-28T06:34:10;101289.94;;;6.85;96.58
68793;BME280;55778;54.346;10.210;2023-04-28T06:36:35;101280.09;;;6.84;94.30
68793;BME280;55778;54.346;10.210;2023-04-28T06:39:01;101277.28;;;6.85;93.75
68793;BME280;55778;54.346;10.210;2023-04-28T06:41:26;101280.94;;;6.97;93.58
68793;BME280;55778;54.346;10.210;2023-04-28T06:43:53;101278.22;;;6.84;93.18
68793;BME280;55778;54.346;10.210;2023-04-28T06:46:19;101275.97;;;6.91;93.59
68793;BME280;55778;54.346;10.210;2023-04-28T06:48:44;101270.50;;;7.03;92.82
68793;BME280;55778;54.346;10.210;2023-04-28T06:51:10;101271.28;;;7.05;92.27
68793;BME280;55778;54.346;10.210;2023-04-28T06:53:35;101270.94;;;7.22;91.99
68793;BME280;55778;54.346;10.210;2023-04-28T06:56:01;101270.84;;;7.47;89.86
68793;BME280;55778;54.346;10.210;2023-04-28T06:58:27;101264.75;;;7.80;86.16
68793;BME280;55778;54.346;10.210;2023-04-28T07:00:52;101256.25;;;8.19;84.06
68793;BME280;55778;54.346;10.210;2023-04-28T07:03:18;101269.75;;;8.66;81.63
68793;BME280;55778;54.346;10.210;2023-04-28T07:05:43;101255.78;;;8.82;80.14
68793;BME280;55778;54.346;10.210;2023-04-28T07:08:09;101256.03;;;9.01;77.81
68793;BME280;55778;54.346;10.210;2023-04-28T07:10:34;101245.00;;;9.35;76.68
68793;BME280;55778;54.346;10.210;2023-04-28T07:13:00;101254.50;;;9.52;74.92
68793;BME280;55778;54.346;10.210;2023-04-28T07:15:26;101253.34;;;9.65;74.35
68793;BME280;55778;54.346;10.210;2023-04-28T07:17:52;101248.34;;;9.81;72.93
68793;BME280;55778;54.346;10.210;2023-04-28T07:20:17;101243.50;;;10.17;70.53
68793;BME280;55778;54.346;10.210;2023-04-28T07:22:43;101249.84;;;10.38;71.13
68793;BME280;55778;54.346;10.210;2023-04-28T07:25:08;101247.91;;;10.49;71.25
68793;BME280;55778;54.346;10.210;2023-04-28T07:27:34;101239.16;;;10.25;69.15
68793;BME280;55778;54.346;10.210;2023-04-28T07:29:59;101239.75;;;10.29;69.93
68793;BME280;55778;54.346;10.210;2023-04-28T07:32:25;101240.00;;;10.26;69.85
68793;BME280;55778;54.346;10.210;2023-04-28T07:34:50;101238.16;;;10.26;68.18
68793;BME280;55778;54.346;10.210;2023-04-28T07:37:16;101235.88;;;10.31;67.89
68793;BME280;55778;54.346;10.210;2023-04-28T07:39:42;101230.25;;;10.44;68.08
68793;BME280;55778;54.346;10.210;2023-04-28T07:42:09;101236.13;;;10.28;67.46
68793;BME280;55778;54.346;10.210;2023-04-28T07:44:35;101237.81;;;10.40;67.91
68793;BME280;55778;54.346;10.210;2023-04-28T07:47:01;101234.13;;;10.71;68.63
68793;BME280;55778;54.346;10.210;2023-04-28T07:49:30;101236.56;;;10.95;67.70
68793;BME280;55778;54.346;10.210;2023-04-28T07:51:56;101228.75;;;11.20;66.22
68793;BME280;55778;54.346;10.210;2023-04-28T07:54:22;101226.03;;;11.20;64.34
68793;BME280;55778;54.346;10.210;2023-04-28T07:56:47;101227.09;;;11.38;62.80
68793;BME280;55778;54.346;10.210;2023-04-28T07:59:13;101227.53;;;11.53;62.40
68793;BME280;55778;54.346;10.210;2023-04-28T08:01:39;101225.41;;;11.56;62.53
68793;BME280;55778;54.346;10.210;2023-04-28T08:04:04;101215.84;;;11.71;62.23
68793;BME280;55778;54.346;10.210;2023-04-28T08:06:30;101222.69;;;11.56;60.26
68793;BME280;55778;54.346;10.210;2023-04-28T08:08:55;101217.41;;;11.64;59.53
68793;BME280;55778;54.346;10.210;2023-04-28T08:11:21;101215.69;;;11.82;57.36
68793;BME280;55778;54.346;10.210;2023-04-28T08:13:47;101216.16;;;11.97;57.75
68793;BME280;55778;54.346;10.210;2023-04-28T08:16:13;101212.69;;;12.14;57.12
68793;BME280;55778;54.346;10.210;2023-04-28T08:18:39;101216.13;;;12.06;56.82
68793;BME280;55778;54.346;10.210;2023-04-28T08:21:05;101213.13;;;12.19;57.57
68793;BME280;55778;54.346;10.210;2023-04-28T08:23:30;101205.91;;;12.37;55.10
68793;BME280;55778;54.346;10.210;2023-04-28T08:25:56;101194.19;;;12.64;53.95
68793;BME280;55778;54.346;10.210;2023-04-28T08:28:22;101193.34;;;13.00;52.55
68793;BME280;55778;54.346;10.210;2023-04-28T08:30:47;101181.91;;;13.14;49.84
68793;BME280;55778;54.346;10.210;2023-04-28T08:33:13;101188.34;;;13.22;50.52
68793;BME280;55778;54.346;10.210;2023-04-28T08:35:38;101188.06;;;13.43;48.54
68793;BME280;55778;54.346;10.210;2023-04-28T08:38:04;101182.81;;;13.05;48.36
68793;BME280;55778;54.346;10.210;2023-04-28T08:40:31;101173.44;;;13.07;48.53
68793;BME280;55778;54.346;10.210;2023-04-28T08:42:57;101180.13;;;13.22;48.67
68793;BME280;55778;54.346;10.210;2023-04-28T08:45:24;101179.94;;;13.33;46.80
68793;BME280;55778;54.346;10.210;2023-04-28T08:47:50;101179.03;;;13.15;47.18
68793;BME280;55778;54.346;10.210;2023-04-28T08:50:22;101182.59;;;13.43;48.05
68793;BME280;55778;54.346;10.210;2023-04-28T08:52:51;101176.13;;;13.44;48.63
68793;BME280;55778;54.346;10.210;2023-04-28T08:55:17;101172.78;;;13.67;46.90
68793;BME280;55778;54.346;10.210;2023-04-28T08:57:48;101168.94;;;13.78;44.88
68793;BME280;55778;54.346;10.210;2023-04-28T09:00:14;101154.59;;;13.66;44.75
68793;BME280;55778;54.346;10.210;2023-04-28T09:02:39;101164.09;;;13.72;45.79
68793;BME280;55778;54.346;10.210;2023-04-28T09:05:09;101166.59;;;13.83;43.05
68793;BME280;55778;54.346;10.210;2023-04-28T09:07:35;101153.75;;;14.01;43.25
68793;BME280;55778;54.346;10.210;2023-04-28T09:10:18;101154.31;;;13.87;42.46
68793;BME280;55778;54.346;10.210;2023-04-28T09:12:44;101148.72;;;13.96;41.24
68793;BME280;55778;54.346;10.210;2023-04-28T09:15:24;101156.00;;;14.05;41.73
68793;BME280;55778;54.346;10.210;2023-04-28T09:17:50;101154.25;;;14.22;41.94
68793;BME280;55778;54.346;10.210;2023-04-28T09:20:23;101143.16;;;14.24;41.20
68793;BME280;55778;54.346;10.210;2023-04-28T09:22:49;101147.88;;;13.96;40.01
68793;BME280;55778;54.346;10.210;2023-04-28T09:25:18;101139.81;;;13.42;39.81
68793;BME280;55778;54.346;10.210;2023-04-28T09:27:45;101133.41;;;13.33;40.34
68793;BME280;55778;54.346;10.210;2023-04-28T09:30:11;101128.53;;;13.27;40.39
68793;BME280;55778;54.346;10.210;2023-04-28T09:32:36;101127.94;;;13.68;40.23
68793;BME280;55778;54.346;10.210;2023-04-28T09:35:02;101117.63;;;14.23;38.05
68793;BME280;55778;54.346;10.210;2023-04-28T09:37:32;101127.00;;;14.38;38.11
68793;BME280;55778;54.346;10.210;2023-04-28T09:40:04;101119.50;;;14.74;37.04
68793;BME280;55778;54.346;10.210;2023-04-28T09:42:43;101119.22;;;14.85;34.93
68793;BME280;55778;54.346;10.210;2023-04-28T09:45:12;101115.06;;;14.81;35.43
68793;BME280;55778;54.346;10.210;2023-04-28T09:47:42;101116.16;;;14.96;36.08
68793;BME280;55778;54.346;10.210;2023-04-28T09:50:11;101112.34;;;14.89;36.77
68793;BME280;55778;54.346;10.210;2023-04-28T09:52:40;101111.31;;;14.82;38.01
68793;BME280;55778;54.346;10.210;2023-04-28T09:55:06;101105.34;;;14.94;38.46
68793;BME280;55778;54.346;10.210;2023-04-28T09:57:36;101101.59;;;15.37;36.66
68793;BME280;55778;54.346;10.210;2023-04-28T10:00:03;101101.25;;;15.64;36.07
68793;BME280;55778;54.346;10.210;2023-04-28T10:02:34;101094.75;;;15.81;36.22
68793;BME280;55778;54.346;10.210;2023-04-28T10:05:00;101089.09;;;15.98;35.83
68793;BME280;55778;54.346;10.210;2023-04-28T10:07:26;101089.94;;;15.91;35.39
68793;BME280;55778;54.346;10.210;2023-04-28T10:09:52;101089.25;;;15.73;37.22
68793;BME280;55778;54.346;10.210;2023-04-28T10:12:21;101088.03;;;15.59;37.39
68793;BME280;55778;54.346;10.210;2023-04-28T10:14:49;101082.56;;;15.67;36.01
68793;BME280;55778;54.346;10.210;2023-04-28T10:17:19;101082.75;;;15.74;34.65
68793;BME280;55778;54.346;10.210;2023-04-28T10:19:47;101078.97;;;15.75;34.83
68793;BME280;55778;54.346;10.210;2023-04-28T10:25:32;101076.53;;;15.80;35.37
68793;BME280;55778;54.346;10.210;2023-04-28T10:27:59;101062.81;;;15.96;36.12
68793;BME280;55778;54.346;10.210;2023-04-28T10:30:29;101064.47;;;16.29;35.70
68793;BME280;55778;54.346;10.210;2023-04-28T10:38:04;101054.19;;;16.07;36.49
68793;BME280;55778;54.346;10.210;2023-04-28T10:42:55;101048.53;;;16.17;35.32
68793;BME280;55778;54.346;10.210;2023-04-28T10:48:19;101041.06;;;16.49;35.75
68793;BME280;55778;54.346;10.210;2023-04-28T10:56:21;101017.72;;;16.45;35.78
68793;BME280;55778;54.346;10.210;2023-04-28T10:58:48;101024.41;;;16.51;35.83
68793;BME280;55778;54.346;10.210;2023-04-28T11:03:54;101026.69;;;16.07;34.01
68793;BME280;55778;54.346;10.210;2023-04-28T11:08:58;101020.31;;;16.23;35.54
68793;BME280;55778;54.346;10.210;2023-04-28T11:13:51;101016.50;;;16.48;33.49
68793;BME280;55778;54.346;10.210;2023-04-28T11:16:20;101017.69;;;16.37;33.77
68793;BME280;55778;54.346;10.210;2023-04-28T11:18:53;101015.84;;;16.22;34.75
68793;BME280;55778;54.346;10.210;2023-04-28T11:21:20;101015.03;;;16.05;34.10
68793;BME280;55778;54.346;10.210;2023-04-28T11:23:46;101013.63;;;16.17;33.08
68793;BME280;55778;54.346;10.210;2023-04-28T11:26:12;101009.78;;;16.34;33.69
68793;BME280;55778;54.346;10.210;2023-04-28T11:28:52;101013.66;;;16.72;34.83
68793;BME280;55778;54.346;10.210;2023-04-28T11:31:19;101011.41;;;17.06;33.96
68793;BME280;55778;54.346;10.210;2023-04-28T11:33:50;101011.31;;;17.14;33.26
68793;BME280;55778;54.346;10.210;2023-04-28T11:36:34;101007.00;;;16.89;34.22
68793;BME280;55778;54.346;10.210;2023-04-28T11:39:01;101006.50;;;17.16;34.70
68793;BME280;55778;54.346;10.210;2023-04-28T11:41:29;101009.06;;;17.17;34.05
68793;BME280;55778;54.346;10.210;2023-04-28T11:43:55;101006.13;;;16.88;33.88
68793;BME280;55778;54.346;10.210;2023-04-28T11:46:22;100995.34;;;16.40;33.56
68793;BME280;55778;54.346;10.210;2023-04-28T11:48:59;100980.22;;;16.44;34.52
68793;BME280;55778;54.346;10.210;2023-04-28T11:51:36;100999.28;;;16.46;35.63
68793;BME280;55778;54.346;10.210;2023-04-28T11:54:06;100995.31;;;15.85;35.59
68793;BME280;55778;54.346;10.210;2023-04-28T11:56:38;100987.06;;;15.85;37.96
68793;BME280;55778;54.346;10.210;2023-04-28T11:59:05;100986.91;;;15.55;36.33
68793;BME280;55778;54.346;10.210;2023-04-28T12:01:32;100997.38;;;15.35;36.94
68793;BME280;55778;54.346;10.210;2023-04-28T12:03:58;100984.53;;;15.68;37.13
68793;BME280;55778;54.346;10.210;2023-04-28T12:06:24;100984.19;;;16.34;35.98
68793;BME280;55778;54.346;10.210;2023-04-28T12:08:49;100975.03;;;16.41;35.04
68793;BME280;55778;54.346;10.210;2023-04-28T12:11:18;100978.28;;;16.53;35.60
68793;BME280;55778;54.346;10.210;2023-04-28T12:14:02;100980.84;;;16.54;35.75
68793;BME280;55778;54.346;10.210;2023-04-28T12:16:41;100971.22;;;16.58;34.59
68793;BME280;55778;54.346;10.210;2023-04-28T12:19:11;100968.25;;;16.98;35.18
68793;BME280;55778;54.346;10.210;2023-04-28T12:21:38;100957.13;;;17.59;33.84
68793;BME280;55778;54.346;10.210;2023-04-28T12:24:19;100960.69;;;18.12;33.74
68793;BME280;55778;54.346;10.210;2023-04-28T12:26:46;100957.69;;;17.02;33.02
68793;BME280;55778;54.346;10.210;2023-04-28T12:29:38;100954.41;;;17.29;33.02
68793;BME280;55778;54.346;10.210;2023-04-28T12:32:06;100950.00;;;17.42;32.85
68793;BME280;55778;54.346;10.210;2023-04-28T12:34:31;100944.66;;;17.49;34.80
68793;BME280;55778;54.346;10.210;2023-04-28T12:36:59;100948.19;;;17.57;33.00
68793;BME280;55778;54.346;10.210;2023-04-28T12:39:25;100943.34;;;17.37;33.53
68793;BME280;55778;54.346;10.210;2023-04-28T12:41:51;100947.78;;;17.15;34.13
68793;BME280;55778;54.346;10.210;2023-04-28T12:44:17;100941.63;;;17.13;34.55
68793;BME280;55778;54.346;10.210;2023-04-28T12:46:43;100936.84;;;17.30;34.27
68793;BME280;55778;54.346;10.210;2023-04-28T12:49:08;100943.94;;;17.02;34.12
68793;BME280;55778;54.346;10.210;2023-04-28T12:51:34;100939.88;;;16.67;34.62
68793;BME280;55778;54.346;10.210;2023-04-28T12:54:00;100942.38;;;16.46;34.64
68793;BME280;55778;54.346;10.210;2023-04-28T12:56:25;100934.47;;;16.35;35.27
68793;BME280;55778;54.346;10.210;2023-04-28T12:58:51;100941.22;;;16.71;36.62
68793;BME280;55778;54.346;10.210;2023-04-28T13:01:16;100939.56;;;16.62;35.93
68793;BME280;55778;54.346;10.210;2023-04-28T13:03:42;100945.22;;;16.61;35.76